sensor_id;sensor_type;location;lat;lon;timestamp;P1;durP1;ratioP1;P2;durP2;ratioP2
11396;SDS011;5754;43.726;7.416;2023-02-15T00:01:32;20.23;;;17.50;;
11396;SDS011;5754;43.726;7.416;2023-02-15T00:04:08;18.37;;;16.47;;
11396;SDS011;5754;43.726;7.416;2023-02-15T00:06:43;19.23;;;16.80;;
11396;SDS011;5754;43.726;7.416;2023-02-15T00:09:17;19.60;;;17.47;;
11396;SDS011;5754;43.726;7.416;2023-02-15T00:11:52;18.23;;;16.40;;
11396;SDS011;5754;43.726;7.416;2023-02-15T00:14:26;18.27;;;16.47;;
11396;SDS011;5754;43.726;7.416;2023-02-15T00:17:01;20.17;;;16.83;;
11396;SDS011;5754;43.726;7.416;2023-02-15T00:19:35;19.17;;;17.13;;
11396;SDS011;5754;43.726;7.416;2023-02-15T00:22:11;18.57;;;16.13;;
11396;SDS011;5754;43.726;7.416;2023-02-15T00:24:45;17.70;;;15.83;;
11396;SDS011;5754;43.726;7.416;2023-02-15T00:27:20;19.33;;;17.23;;
11396;SDS011;5754;43.726;7.416;2023-02-15T00:29:54;18.47;;;16.53;;
11396;SDS011;5754;43.726;7.416;2023-02-15T00:32:28;17.93;;;16.03;;
11396;SDS011;5754;43.726;7.416;2023-02-15T00:35:09;18.77;;;16.83;;
11396;SDS011;5754;43.726;7.416;2023-02-15T00:37:43;20.10;;;18.00;;
11396;SDS011;5754;43.726;7.416;2023-02-15T00:40:18;18.33;;;16.60;;
11396;SDS011;5754;43.726;7.416;2023-02-15T00:42:53;17.73;;;15.60;;
11396;SDS011;5754;43.726;7.416;2023-02-15T00:45:27;19.97;;;17.80;;
11396;SDS011;5754;43.726;7.416;2023-02-15T00:48:02;20.13;;;16.80;;
11396;SDS011;5754;43.726;7.416;2023-02-15T00:50:36;18.57;;;16.77;;
11396;SDS011;5754;43.726;7.416;2023-02-15T00:53:11;17.70;;;16.00;;
11396;SDS011;5754;43.726;7.416;2023-02-15T00:55:45;17.53;;;15.63;;
11396;SDS011;5754;43.726;7.416;2023-02-15T00:58:20;18.93;;;17.03;;
11396;SDS011;5754;43.726;7.416;2023-02-15T01:00:55;17.73;;;16.03;;
11396;SDS011;5754;43.726;7.416;2023-02-15T01:03:31;17.83;;;16.03;;
11396;SDS011;5754;43.726;7.416;2023-02-15T01:06:05;18.77;;;16.87;;
11396;SDS011;5754;43.726;7.416;2023-02-15T01:08:40;18.40;;;16.60;;
11396;SDS011;5754;43.726;7.416;2023-02-15T01:11:16;19.63;;;16.57;;
11396;SDS011;5754;43.726;7.416;2023-02-15T01:13:57;18.67;;;16.83;;
11396;SDS011;5754;43.726;7.416;2023-02-15T01:16:32;17.27;;;15.50;;
11396;SDS011;5754;43.726;7.416;2023-02-15T01:19:06;17.50;;;15.70;;
11396;SDS011;5754;43.726;7.416;2023-02-15T01:21:40;17.73;;;15.97;;
11396;SDS011;5754;43.726;7.416;2023-02-15T01:24:16;18.43;;;16.67;;
11396;SDS011;5754;43.726;7.416;2023-02-15T01:26:50;19.40;;;17.37;;
11396;SDS011;5754;43.726;7.416;2023-02-15T01:29:25;19.80;;;16.53;;
11396;SDS011;5754;43.726;7.416;2023-02-15T01:32:00;18.57;;;16.57;;
11396;SDS011;5754;43.726;7.416;2023-02-15T01:34:36;18.80;;;16.90;;
11396;SDS011;5754;43.726;7.416;2023-02-15T01:37:12;19.00;;;16.20;;
11396;SDS011;5754;43.726;7.416;2023-02-15T01:39:47;18.10;;;16.33;;
11396;SDS011;5754;43.726;7.416;2023-02-15T01:42:25;20.07;;;17.93;;
11396;SDS011;5754;43.726;7.416;2023-02-15T01:45:04;19.27;;;16.67;;
11396;SDS011;5754;43.726;7.416;2023-02-15T01:47:44;19.07;;;17.07;;
11396;SDS011;5754;43.726;7.416;2023-02-15T01:50:28;19.13;;;17.30;;
11396;SDS011;5754;43.726;7.416;2023-02-15T01:53:38;19.17;;;17.20;;
11396;SDS011;5754;43.726;7.416;2023-02-15T01:56:18;21.33;;;16.80;;
11396;SDS011;5754;43.726;7.416;2023-02-15T01:58:56;17.87;;;16.07;;
11396;SDS011;5754;43.726;7.416;2023-02-15T02:01:32;18.47;;;16.57;;
11396;SDS011;5754;43.726;7.416;2023-02-15T02:04:52;18.50;;;16.60;;
11396;SDS011;5754;43.726;7.416;2023-02-15T02:07:29;19.97;;;17.93;;
11396;SDS011;5754;43.726;7.416;2023-02-15T02:10:07;20.43;;;17.40;;
11396;SDS011;5754;43.726;7.416;2023-02-15T02:12:45;18.27;;;16.37;;
11396;SDS011;5754;43.726;7.416;2023-02-15T02:15:21;19.30;;;17.47;;
11396;SDS011;5754;43.726;7.416;2023-02-15T02:18:11;20.20;;;17.93;;
11396;SDS011;5754;43.726;7.416;2023-02-15T02:32:53;19.70;;;17.60;;
11396;SDS011;5754;43.726;7.416;2023-02-15T02:35:43;20.10;;;18.17;;
11396;SDS011;5754;43.726;7.416;2023-02-15T02:38:23;18.97;;;17.07;;
11396;SDS011;5754;43.726;7.416;2023-02-15T02:41:06;19.17;;;17.37;;
11396;SDS011;5754;43.726;7.416;2023-02-15T02:43:51;18.83;;;17.00;;
11396;SDS011;5754;43.726;7.416;2023-02-15T02:46:31;19.70;;;17.70;;
11396;SDS011;5754;43.726;7.416;2023-02-15T02:49:07;21.10;;;19.10;;
11396;SDS011;5754;43.726;7.416;2023-02-15T02:51:42;20.77;;;18.73;;
11396;SDS011;5754;43.726;7.416;2023-02-15T02:54:16;19.80;;;17.80;;
11396;SDS011;5754;43.726;7.416;2023-02-15T02:56:50;18.70;;;16.80;;
11396;SDS011;5754;43.726;7.416;2023-02-15T02:59:33;18.20;;;16.30;;
11396;SDS011;5754;43.726;7.416;2023-02-15T03:02:32;19.27;;;17.37;;
11396;SDS011;5754;43.726;7.416;2023-02-15T03:05:12;19.57;;;17.67;;
11396;SDS011;5754;43.726;7.416;2023-02-15T03:07:49;18.77;;;16.87;;
11396;SDS011;5754;43.726;7.416;2023-02-15T03:10:26;20.00;;;17.10;;
11396;SDS011;5754;43.726;7.416;2023-02-15T03:13:03;19.60;;;17.73;;
11396;SDS011;5754;43.726;7.416;2023-02-15T03:15:38;18.43;;;16.53;;
11396;SDS011;5754;43.726;7.416;2023-02-15T03:18:34;18.37;;;16.33;;
11396;SDS011;5754;43.726;7.416;2023-02-15T03:21:11;19.83;;;17.73;;
11396;SDS011;5754;43.726;7.416;2023-02-15T03:23:57;19.23;;;17.37;;
11396;SDS011;5754;43.726;7.416;2023-02-15T03:26:34;18.20;;;16.40;;
11396;SDS011;5754;43.726;7.416;2023-02-15T03:29:09;19.13;;;17.17;;
11396;SDS011;5754;43.726;7.416;2023-02-15T03:31:45;21.20;;;17.53;;
11396;SDS011;5754;43.726;7.416;2023-02-15T03:34:21;19.47;;;17.67;;
11396;SDS011;5754;43.726;7.416;2023-02-15T03:37:16;19.23;;;17.23;;
11396;SDS011;5754;43.726;7.416;2023-02-15T03:39:57;19.43;;;17.43;;
11396;SDS011;5754;43.726;7.416;2023-02-15T03:43:58;19.40;;;17.60;;
11396;SDS011;5754;43.726;7.416;2023-02-15T03:51:05;20.30;;;18.30;;
11396;SDS011;5754;43.726;7.416;2023-02-15T03:54:20;20.23;;;18.17;;
11396;SDS011;5754;43.726;7.416;2023-02-15T03:57:25;19.47;;;17.63;;
11396;SDS011;5754;43.726;7.416;2023-02-15T04:00:19;19.50;;;17.43;;
11396;SDS011;5754;43.726;7.416;2023-02-15T04:03:21;19.33;;;17.30;;
11396;SDS011;5754;43.726;7.416;2023-02-15T04:05:56;19.30;;;17.50;;
11396;SDS011;5754;43.726;7.416;2023-02-15T04:08:33;19.23;;;17.47;;
11396;SDS011;5754;43.726;7.416;2023-02-15T04:11:25;20.23;;;17.93;;
11396;SDS011;5754;43.726;7.416;2023-02-15T04:13:59;19.40;;;17.37;;
11396;SDS011;5754;43.726;7.416;2023-02-15T04:18:40;18.93;;;17.03;;
11396;SDS011;5754;43.726;7.416;2023-02-15T04:21:33;19.07;;;17.07;;
11396;SDS011;5754;43.726;7.416;2023-02-15T04:24:27;20.40;;;18.40;;
11396;SDS011;5754;43.726;7.416;2023-02-15T04:27:19;21.10;;;18.03;;
11396;SDS011;5754;43.726;7.416;2023-02-15T04:29:54;20.27;;;18.17;;
11396;SDS011;5754;43.726;7.416;2023-02-15T04:32:28;18.50;;;16.60;;
11396;SDS011;5754;43.726;7.416;2023-02-15T04:35:03;21.13;;;18.77;;
11396;SDS011;5754;43.726;7.416;2023-02-15T04:37:40;20.03;;;18.13;;
11396;SDS011;5754;43.726;7.416;2023-02-15T04:40:16;19.77;;;17.97;;
11396;SDS011;5754;43.726;7.416;2023-02-15T04:42:52;22.10;;;18.83;;
11396;SDS011;5754;43.726;7.416;2023-02-15T04:45:28;19.80;;;17.90;;
11396;SDS011;5754;43.726;7.416;2023-02-15T04:48:03;21.27;;;19.17;;
11396;SDS011;5754;43.726;7.416;2023-02-15T04:50:37;21.20;;;18.47;;
11396;SDS011;5754;43.726;7.416;2023-02-15T04:53:12;21.80;;;18.57;;
11396;SDS011;5754;43.726;7.416;2023-02-15T04:55:46;20.10;;;17.87;;
11396;SDS011;5754;43.726;7.416;2023-02-15T04:58:21;20.00;;;17.90;;
11396;SDS011;5754;43.726;7.416;2023-02-15T05:00:56;24.77;;;18.13;;
11396;SDS011;5754;43.726;7.416;2023-02-15T05:03:32;21.43;;;18.20;;
11396;SDS011;5754;43.726;7.416;2023-02-15T05:06:07;24.67;;;18.47;;
11396;SDS011;5754;43.726;7.416;2023-02-15T05:08:42;25.47;;;19.77;;
11396;SDS011;5754;43.726;7.416;2023-02-15T05:11:16;25.97;;;19.67;;
11396;SDS011;5754;43.726;7.416;2023-02-15T05:13:51;21.10;;;18.90;;
11396;SDS011;5754;43.726;7.416;2023-02-15T05:16:25;21.90;;;18.60;;
11396;SDS011;5754;43.726;7.416;2023-02-15T05:19:01;22.53;;;19.67;;
11396;SDS011;5754;43.726;7.416;2023-02-15T05:21:35;21.67;;;19.20;;
11396;SDS011;5754;43.726;7.416;2023-02-15T05:24:09;21.30;;;18.53;;
11396;SDS011;5754;43.726;7.416;2023-02-15T05:27:02;21.07;;;18.80;;
11396;SDS011;5754;43.726;7.416;2023-02-15T05:29:55;22.07;;;18.27;;
11396;SDS011;5754;43.726;7.416;2023-02-15T05:32:30;21.27;;;18.20;;
11396;SDS011;5754;43.726;7.416;2023-02-15T05:35:06;21.30;;;19.00;;
11396;SDS011;5754;43.726;7.416;2023-02-15T05:37:41;21.57;;;19.37;;
11396;SDS011;5754;43.726;7.416;2023-02-15T05:40:16;21.83;;;18.87;;
11396;SDS011;5754;43.726;7.416;2023-02-15T05:42:50;20.87;;;18.87;;
11396;SDS011;5754;43.726;7.416;2023-02-15T05:45:24;20.43;;;18.33;;
11396;SDS011;5754;43.726;7.416;2023-02-15T05:47:59;22.33;;;19.93;;
11396;SDS011;5754;43.726;7.416;2023-02-15T05:50:33;21.87;;;19.67;;
11396;SDS011;5754;43.726;7.416;2023-02-15T05:53:08;21.63;;;19.43;;
11396;SDS011;5754;43.726;7.416;2023-02-15T05:55:42;21.83;;;19.53;;
11396;SDS011;5754;43.726;7.416;2023-02-15T05:58:17;21.80;;;19.70;;
11396;SDS011;5754;43.726;7.416;2023-02-15T06:00:51;21.80;;;19.50;;
11396;SDS011;5754;43.726;7.416;2023-02-15T06:03:26;21.60;;;19.20;;
11396;SDS011;5754;43.726;7.416;2023-02-15T06:06:01;22.60;;;20.30;;
11396;SDS011;5754;43.726;7.416;2023-02-15T06:08:38;21.70;;;19.43;;
11396;SDS011;5754;43.726;7.416;2023-02-15T06:11:13;21.23;;;19.23;;
11396;SDS011;5754;43.726;7.416;2023-02-15T06:13:47;21.67;;;19.47;;
11396;SDS011;5754;43.726;7.416;2023-02-15T06:16:22;22.77;;;19.90;;
11396;SDS011;5754;43.726;7.416;2023-02-15T06:18:57;20.60;;;18.60;;
11396;SDS011;5754;43.726;7.416;2023-02-15T06:21:32;21.33;;;19.33;;
11396;SDS011;5754;43.726;7.416;2023-02-15T06:24:08;23.47;;;21.00;;
11396;SDS011;5754;43.726;7.416;2023-02-15T06:26:42;23.53;;;20.70;;
11396;SDS011;5754;43.726;7.416;2023-02-15T06:29:16;24.47;;;21.57;;
11396;SDS011;5754;43.726;7.416;2023-02-15T06:31:51;23.90;;;21.47;;
11396;SDS011;5754;43.726;7.416;2023-02-15T06:34:25;23.63;;;21.07;;
11396;SDS011;5754;43.726;7.416;2023-02-15T06:37:00;23.53;;;20.97;;
11396;SDS011;5754;43.726;7.416;2023-02-15T06:39:34;24.53;;;21.37;;
11396;SDS011;5754;43.726;7.416;2023-02-15T06:42:08;26.50;;;21.40;;
11396;SDS011;5754;43.726;7.416;2023-02-15T06:44:44;24.00;;;21.43;;
11396;SDS011;5754;43.726;7.416;2023-02-15T06:47:18;24.30;;;21.77;;
11396;SDS011;5754;43.726;7.416;2023-02-15T06:49:52;23.30;;;20.90;;
11396;SDS011;5754;43.726;7.416;2023-02-15T06:52:27;24.33;;;21.83;;
11396;SDS011;5754;43.726;7.416;2023-02-15T06:55:02;22.83;;;20.53;;
11396;SDS011;5754;43.726;7.416;2023-02-15T06:57:37;23.33;;;21.00;;
11396;SDS011;5754;43.726;7.416;2023-02-15T07:00:12;24.97;;;22.37;;
11396;SDS011;5754;43.726;7.416;2023-02-15T07:02:47;24.63;;;21.93;;
11396;SDS011;5754;43.726;7.416;2023-02-15T07:05:21;24.93;;;22.33;;
11396;SDS011;5754;43.726;7.416;2023-02-15T07:07:58;24.10;;;21.67;;
11396;SDS011;5754;43.726;7.416;2023-02-15T07:10:33;26.80;;;21.97;;
11396;SDS011;5754;43.726;7.416;2023-02-15T07:13:08;24.23;;;21.67;;
11396;SDS011;5754;43.726;7.416;2023-02-15T07:15:43;24.60;;;22.17;;
11396;SDS011;5754;43.726;7.416;2023-02-15T07:18:18;24.83;;;22.17;;
11396;SDS011;5754;43.726;7.416;2023-02-15T07:20:52;23.90;;;21.40;;
11396;SDS011;5754;43.726;7.416;2023-02-15T07:23:26;22.97;;;20.90;;
11396;SDS011;5754;43.726;7.416;2023-02-15T07:26:00;23.17;;;20.77;;
11396;SDS011;5754;43.726;7.416;2023-02-15T07:28:35;22.53;;;20.30;;
11396;SDS011;5754;43.726;7.416;2023-02-15T07:31:09;21.27;;;19.20;;
11396;SDS011;5754;43.726;7.416;2023-02-15T07:33:44;24.13;;;21.77;;
11396;SDS011;5754;43.726;7.416;2023-02-15T07:36:18;22.73;;;20.27;;
11396;SDS011;5754;43.726;7.416;2023-02-15T07:38:53;23.53;;;21.13;;
11396;SDS011;5754;43.726;7.416;2023-02-15T07:41:27;23.40;;;21.30;;
11396;SDS011;5754;43.726;7.416;2023-02-15T07:44:01;24.17;;;21.83;;
11396;SDS011;5754;43.726;7.416;2023-02-15T07:46:36;21.20;;;19.40;;
11396;SDS011;5754;43.726;7.416;2023-02-15T07:49:10;18.07;;;16.27;;
11396;SDS011;5754;43.726;7.416;2023-02-15T07:51:45;20.03;;;18.03;;
11396;SDS011;5754;43.726;7.416;2023-02-15T07:54:19;20.83;;;18.03;;
11396;SDS011;5754;43.726;7.416;2023-02-15T07:56:54;19.43;;;17.60;;
11396;SDS011;5754;43.726;7.416;2023-02-15T07:59:28;21.50;;;17.97;;
11396;SDS011;5754;43.726;7.416;2023-02-15T08:02:03;19.57;;;17.77;;
11396;SDS011;5754;43.726;7.416;2023-02-15T08:04:39;22.90;;;18.40;;
11396;SDS011;5754;43.726;7.416;2023-02-15T08:07:14;20.43;;;18.27;;
11396;SDS011;5754;43.726;7.416;2023-02-15T08:09:48;18.63;;;16.83;;
11396;SDS011;5754;43.726;7.416;2023-02-15T08:12:22;19.13;;;17.33;;
11396;SDS011;5754;43.726;7.416;2023-02-15T08:14:57;20.00;;;18.13;;
11396;SDS011;5754;43.726;7.416;2023-02-15T08:17:35;17.93;;;15.97;;
11396;SDS011;5754;43.726;7.416;2023-02-15T08:20:10;17.87;;;15.97;;
11396;SDS011;5754;43.726;7.416;2023-02-15T08:22:44;17.47;;;15.87;;
11396;SDS011;5754;43.726;7.416;2023-02-15T08:25:18;14.83;;;13.43;;
11396;SDS011;5754;43.726;7.416;2023-02-15T08:27:53;13.37;;;12.07;;
11396;SDS011;5754;43.726;7.416;2023-02-15T08:30:27;14.57;;;13.23;;
11396;SDS011;5754;43.726;7.416;2023-02-15T08:33:02;13.33;;;12.00;;
11396;SDS011;5754;43.726;7.416;2023-02-15T08:35:37;13.07;;;11.80;;
11396;SDS011;5754;43.726;7.416;2023-02-15T08:38:11;12.80;;;11.48;;
11396;SDS011;5754;43.726;7.416;2023-02-15T08:43:33;11.77;;;10.77;;
11396;SDS011;5754;43.726;7.416;2023-02-15T08:46:07;11.50;;;10.30;;
11396;SDS011;5754;43.726;7.416;2023-02-15T08:48:41;11.93;;;10.80;;
11396;SDS011;5754;43.726;7.416;2023-02-15T08:51:17;11.60;;;10.40;;
11396;SDS011;5754;43.726;7.416;2023-02-15T08:53:53;12.82;;;11.60;;
11396;SDS011;5754;43.726;7.416;2023-02-15T08:56:29;11.38;;;10.38;;
11396;SDS011;5754;43.726;7.416;2023-02-15T08:59:05;12.30;;;11.07;;
11396;SDS011;5754;43.726;7.416;2023-02-15T09:01:41;12.07;;;10.85;;
11396;SDS011;5754;43.726;7.416;2023-02-15T09:04:16;12.85;;;11.68;;
11396;SDS011;5754;43.726;7.416;2023-02-15T09:06:50;11.90;;;10.70;;
11396;SDS011;5754;43.726;7.416;2023-02-15T09:09:25;10.43;;;9.52;;
11396;SDS011;5754;43.726;7.416;2023-02-15T09:11:59;12.02;;;10.82;;
11396;SDS011;5754;43.726;7.416;2023-02-15T09:14:34;10.75;;;9.77;;
11396;SDS011;5754;43.726;7.416;2023-02-15T09:17:08;11.27;;;10.07;;
11396;SDS011;5754;43.726;7.416;2023-02-15T09:19:43;10.20;;;9.40;;
11396;SDS011;5754;43.726;7.416;2023-02-15T09:22:17;10.45;;;9.60;;
11396;SDS011;5754;43.726;7.416;2023-02-15T09:24:51;8.88;;;8.18;;
11396;SDS011;5754;43.726;7.416;2023-02-15T09:27:26;10.65;;;9.57;;
11396;SDS011;5754;43.726;7.416;2023-02-15T09:30:01;9.73;;;8.82;;
11396;SDS011;5754;43.726;7.416;2023-02-15T09:32:35;9.00;;;8.20;;
11396;SDS011;5754;43.726;7.416;2023-02-15T09:35:10;9.68;;;8.68;;
11396;SDS011;5754;43.726;7.416;2023-02-15T09:37:44;9.65;;;8.75;;
11396;SDS011;5754;43.726;7.416;2023-02-15T09:40:18;9.90;;;8.90;;
11396;SDS011;5754;43.726;7.416;2023-02-15T09:42:56;10.40;;;9.30;;
11396;SDS011;5754;43.726;7.416;2023-02-15T09:51:57;11.00;;;9.90;;
11396;SDS011;5754;43.726;7.416;2023-02-15T09:59:48;11.52;;;10.52;;
11396;SDS011;5754;43.726;7.416;2023-02-15T10:02:33;12.60;;;11.43;;
11396;SDS011;5754;43.726;7.416;2023-02-15T10:06:36;12.95;;;11.75;;
11396;SDS011;5754;43.726;7.416;2023-02-15T10:29:35;13.57;;;12.30;;
11396;SDS011;5754;43.726;7.416;2023-02-15T10:32:26;12.98;;;11.77;;
11396;SDS011;5754;43.726;7.416;2023-02-15T10:41:12;14.35;;;12.98;;
11396;SDS011;5754;43.726;7.416;2023-02-15T10:47:10;14.73;;;13.10;;
11396;SDS011;5754;43.726;7.416;2023-02-15T10:49:57;12.80;;;11.60;;
11396;SDS011;5754;43.726;7.416;2023-02-15T10:57:25;14.02;;;12.75;;
11396;SDS011;5754;43.726;7.416;2023-02-15T11:00:22;14.23;;;12.90;;
11396;SDS011;5754;43.726;7.416;2023-02-15T11:08:10;13.80;;;12.60;;
11396;SDS011;5754;43.726;7.416;2023-02-15T11:10:48;14.65;;;13.13;;
11396;SDS011;5754;43.726;7.416;2023-02-15T11:13:25;14.67;;;13.23;;
11396;SDS011;5754;43.726;7.416;2023-02-15T11:19:14;14.70;;;13.40;;
11396;SDS011;5754;43.726;7.416;2023-02-15T11:21:51;14.00;;;12.57;;
11396;SDS011;5754;43.726;7.416;2023-02-15T11:24:28;12.87;;;11.77;;
11396;SDS011;5754;43.726;7.416;2023-02-15T11:27:04;13.93;;;12.00;;
11396;SDS011;5754;43.726;7.416;2023-02-15T11:29:57;12.47;;;11.27;;
11396;SDS011;5754;43.726;7.416;2023-02-15T11:32:37;14.03;;;11.97;;
11396;SDS011;5754;43.726;7.416;2023-02-15T11:35:19;13.23;;;12.03;;
11396;SDS011;5754;43.726;7.416;2023-02-15T11:38:04;14.00;;;11.43;;
11396;SDS011;5754;43.726;7.416;2023-02-15T11:40:42;14.30;;;11.77;;
11396;SDS011;5754;43.726;7.416;2023-02-15T11:43:26;12.20;;;11.10;;
11396;SDS011;5754;43.726;7.416;2023-02-15T11:46:02;13.33;;;11.93;;
11396;SDS011;5754;43.726;7.416;2023-02-15T11:48:36;14.30;;;13.00;;
11396;SDS011;5754;43.726;7.416;2023-02-15T11:51:12;13.87;;;12.47;;
11396;SDS011;5754;43.726;7.416;2023-02-15T11:53:49;16.27;;;12.47;;
11396;SDS011;5754;43.726;7.416;2023-02-15T11:56:25;13.73;;;12.33;;
11396;SDS011;5754;43.726;7.416;2023-02-15T11:59:01;15.23;;;13.83;;
11396;SDS011;5754;43.726;7.416;2023-02-15T12:01:39;13.87;;;12.53;;
11396;SDS011;5754;43.726;7.416;2023-02-15T12:04:36;14.77;;;13.27;;
11396;SDS011;5754;43.726;7.416;2023-02-15T12:07:32;16.80;;;13.00;;
11396;SDS011;5754;43.726;7.416;2023-02-15T12:10:16;14.13;;;12.80;;
11396;SDS011;5754;43.726;7.416;2023-02-15T12:15:45;13.90;;;12.60;;
11396;SDS011;5754;43.726;7.416;2023-02-15T12:18:38;15.17;;;13.43;;
11396;SDS011;5754;43.726;7.416;2023-02-15T12:21:33;14.87;;;13.30;;
11396;SDS011;5754;43.726;7.416;2023-02-15T12:24:21;16.67;;;13.93;;
11396;SDS011;5754;43.726;7.416;2023-02-15T12:27:06;14.03;;;12.73;;
11396;SDS011;5754;43.726;7.416;2023-02-15T12:29:51;15.93;;;13.33;;
11396;SDS011;5754;43.726;7.416;2023-02-15T12:32:46;14.20;;;12.90;;
11396;SDS011;5754;43.726;7.416;2023-02-15T12:35:32;14.67;;;13.17;;
11396;SDS011;5754;43.726;7.416;2023-02-15T12:41:46;15.83;;;14.27;;
11396;SDS011;5754;43.726;7.416;2023-02-15T12:44:22;16.30;;;14.57;;
11396;SDS011;5754;43.726;7.416;2023-02-15T12:46:59;15.00;;;12.87;;
11396;SDS011;5754;43.726;7.416;2023-02-15T12:49:35;16.07;;;14.37;;
11396;SDS011;5754;43.726;7.416;2023-02-15T12:57:25;16.13;;;14.30;;
11396;SDS011;5754;43.726;7.416;2023-02-15T13:00:02;15.43;;;13.90;;
11396;SDS011;5754;43.726;7.416;2023-02-15T13:02:44;16.87;;;15.07;;
11396;SDS011;5754;43.726;7.416;2023-02-15T13:05:37;16.00;;;14.47;;
11396;SDS011;5754;43.726;7.416;2023-02-15T13:08:14;16.10;;;14.50;;
11396;SDS011;5754;43.726;7.416;2023-02-15T13:10:57;14.63;;;13.23;;
11396;SDS011;5754;43.726;7.416;2023-02-15T13:13:33;16.60;;;13.67;;
11396;SDS011;5754;43.726;7.416;2023-02-15T13:16:09;14.67;;;13.17;;
11396;SDS011;5754;43.726;7.416;2023-02-15T13:18:45;15.03;;;12.70;;
11396;SDS011;5754;43.726;7.416;2023-02-15T13:21:21;12.73;;;11.27;;
11396;SDS011;5754;43.726;7.416;2023-02-15T13:24:02;12.13;;;10.47;;
11396;SDS011;5754;43.726;7.416;2023-02-15T13:26:39;11.07;;;9.97;;
11396;SDS011;5754;43.726;7.416;2023-02-15T13:29:22;11.30;;;10.20;;
11396;SDS011;5754;43.726;7.416;2023-02-15T13:31:58;11.37;;;10.20;;
11396;SDS011;5754;43.726;7.416;2023-02-15T13:34:36;10.83;;;9.70;;
11396;SDS011;5754;43.726;7.416;2023-02-15T13:37:16;11.20;;;9.53;;
11396;SDS011;5754;43.726;7.416;2023-02-15T13:43:58;13.37;;;9.73;;
11396;SDS011;5754;43.726;7.416;2023-02-15T13:46:43;13.37;;;9.27;;
11396;SDS011;5754;43.726;7.416;2023-02-15T13:53:39;10.73;;;9.67;;
11396;SDS011;5754;43.726;7.416;2023-02-15T14:00:30;10.90;;;8.67;;
11396;SDS011;5754;43.726;7.416;2023-02-15T14:03:19;10.73;;;8.60;;
11396;SDS011;5754;43.726;7.416;2023-02-15T14:17:29;11.83;;;7.60;;
11396;SDS011;5754;43.726;7.416;2023-02-15T14:28:49;10.00;;;7.00;;
11396;SDS011;5754;43.726;7.416;2023-02-15T14:31:34;7.43;;;6.73;;
11396;SDS011;5754;43.726;7.416;2023-02-15T14:34:25;9.60;;;7.40;;
11396;SDS011;5754;43.726;7.416;2023-02-15T14:37:03;8.07;;;7.27;;
11396;SDS011;5754;43.726;7.416;2023-02-15T14:40:00;7.47;;;6.77;;
11396;SDS011;5754;43.726;7.416;2023-02-15T14:42:59;7.90;;;6.20;;
11396;SDS011;5754;43.726;7.416;2023-02-15T14:51:53;7.83;;;5.90;;
11396;SDS011;5754;43.726;7.416;2023-02-15T14:57:55;9.47;;;5.70;;
11396;SDS011;5754;43.726;7.416;2023-02-15T15:00:33;5.90;;;5.30;;
11396;SDS011;5754;43.726;7.416;2023-02-15T15:03:30;6.53;;;5.10;;
11396;SDS011;5754;43.726;7.416;2023-02-15T15:06:06;5.40;;;4.90;;
11396;SDS011;5754;43.726;7.416;2023-02-15T15:08:40;6.13;;;5.53;;
11396;SDS011;5754;43.726;7.416;2023-02-15T15:15:45;8.70;;;5.03;;
11396;SDS011;5754;43.726;7.416;2023-02-15T15:22:50;6.83;;;5.07;;
11396;SDS011;5754;43.726;7.416;2023-02-15T15:29:58;6.50;;;5.23;;
11396;SDS011;5754;43.726;7.416;2023-02-15T15:32:33;5.37;;;4.87;;
11396;SDS011;5754;43.726;7.416;2023-02-15T15:35:13;5.37;;;4.83;;
11396;SDS011;5754;43.726;7.416;2023-02-15T15:37:57;5.43;;;4.93;;
11396;SDS011;5754;43.726;7.416;2023-02-15T15:44:52;8.03;;;5.40;;
11396;SDS011;5754;43.726;7.416;2023-02-15T15:47:39;6.77;;;4.93;;
11396;SDS011;5754;43.726;7.416;2023-02-15T15:50:23;6.47;;;5.20;;
11396;SDS011;5754;43.726;7.416;2023-02-15T15:52:59;7.10;;;4.90;;
11396;SDS011;5754;43.726;7.416;2023-02-15T15:55:35;9.50;;;5.40;;
11396;SDS011;5754;43.726;7.416;2023-02-15T15:58:12;7.40;;;4.87;;
11396;SDS011;5754;43.726;7.416;2023-02-15T16:00:50;9.07;;;5.03;;
11396;SDS011;5754;43.726;7.416;2023-02-15T16:03:26;7.83;;;5.97;;
11396;SDS011;5754;43.726;7.416;2023-02-15T16:06:02;6.87;;;6.20;;
11396;SDS011;5754;43.726;7.416;2023-02-15T16:08:38;6.37;;;5.70;;
11396;SDS011;5754;43.726;7.416;2023-02-15T16:11:19;6.50;;;5.50;;
11396;SDS011;5754;43.726;7.416;2023-02-15T16:13:55;7.83;;;5.40;;
11396;SDS011;5754;43.726;7.416;2023-02-15T16:16:30;6.20;;;5.60;;
11396;SDS011;5754;43.726;7.416;2023-02-15T16:19:04;5.77;;;5.00;;
11396;SDS011;5754;43.726;7.416;2023-02-15T16:21:38;5.90;;;4.83;;
11396;SDS011;5754;43.726;7.416;2023-02-15T16:24:21;6.60;;;5.20;;
11396;SDS011;5754;43.726;7.416;2023-02-15T16:27:06;9.40;;;5.53;;
11396;SDS011;5754;43.726;7.416;2023-02-15T16:29:43;7.47;;;4.97;;
11396;SDS011;5754;43.726;7.416;2023-02-15T16:32:26;6.30;;;5.37;;
11396;SDS011;5754;43.726;7.416;2023-02-15T16:35:02;5.50;;;4.70;;
11396;SDS011;5754;43.726;7.416;2023-02-15T16:37:37;6.33;;;5.00;;
11396;SDS011;5754;43.726;7.416;2023-02-15T16:41:12;7.27;;;5.00;;
11396;SDS011;5754;43.726;7.416;2023-02-15T16:43:47;6.53;;;5.43;;
11396;SDS011;5754;43.726;7.416;2023-02-15T16:46:30;7.53;;;5.47;;
11396;SDS011;5754;43.726;7.416;2023-02-15T16:49:07;9.87;;;6.23;;
11396;SDS011;5754;43.726;7.416;2023-02-15T16:51:55;9.03;;;6.73;;
11396;SDS011;5754;43.726;7.416;2023-02-15T16:54:30;6.77;;;5.40;;
11396;SDS011;5754;43.726;7.416;2023-02-15T16:57:05;7.67;;;5.00;;
11396;SDS011;5754;43.726;7.416;2023-02-15T16:59:48;6.53;;;5.30;;
11396;SDS011;5754;43.726;7.416;2023-02-15T17:02:27;5.23;;;4.73;;
11396;SDS011;5754;43.726;7.416;2023-02-15T17:06:27;6.00;;;4.77;;
11396;SDS011;5754;43.726;7.416;2023-02-15T17:09:04;5.57;;;4.70;;
11396;SDS011;5754;43.726;7.416;2023-02-15T17:11:40;8.97;;;5.33;;
11396;SDS011;5754;43.726;7.416;2023-02-15T17:14:18;6.90;;;5.13;;
11396;SDS011;5754;43.726;7.416;2023-02-15T17:16:58;5.30;;;4.80;;
11396;SDS011;5754;43.726;7.416;2023-02-15T17:19:40;6.33;;;4.80;;
11396;SDS011;5754;43.726;7.416;2023-02-15T17:22:18;7.53;;;5.13;;
11396;SDS011;5754;43.726;7.416;2023-02-15T17:25:02;5.83;;;5.17;;
11396;SDS011;5754;43.726;7.416;2023-02-15T17:27:38;6.77;;;5.20;;
11396;SDS011;5754;43.726;7.416;2023-02-15T17:30:13;7.97;;;5.20;;
11396;SDS011;5754;43.726;7.416;2023-02-15T17:32:55;9.17;;;5.30;;
11396;SDS011;5754;43.726;7.416;2023-02-15T17:35:31;5.77;;;5.20;;
11396;SDS011;5754;43.726;7.416;2023-02-15T17:38:13;8.50;;;5.80;;
11396;SDS011;5754;43.726;7.416;2023-02-15T17:40:49;6.53;;;4.77;;
11396;SDS011;5754;43.726;7.416;2023-02-15T17:43:24;7.90;;;4.83;;
11396;SDS011;5754;43.726;7.416;2023-02-15T17:45:59;5.97;;;5.30;;
11396;SDS011;5754;43.726;7.416;2023-02-15T17:48:33;5.40;;;4.90;;
11396;SDS011;5754;43.726;7.416;2023-02-15T17:51:11;5.23;;;4.63;;
11396;SDS011;5754;43.726;7.416;2023-02-15T17:53:45;8.73;;;5.37;;
11396;SDS011;5754;43.726;7.416;2023-02-15T17:56:39;8.33;;;5.33;;
11396;SDS011;5754;43.726;7.416;2023-02-15T17:59:13;9.13;;;5.03;;
11396;SDS011;5754;43.726;7.416;2023-02-15T18:01:48;6.27;;;4.63;;
11396;SDS011;5754;43.726;7.416;2023-02-15T18:04:42;6.87;;;4.73;;
11396;SDS011;5754;43.726;7.416;2023-02-15T18:07:35;6.23;;;4.63;;
11396;SDS011;5754;43.726;7.416;2023-02-15T18:10:29;6.37;;;4.73;;
11396;SDS011;5754;43.726;7.416;2023-02-15T18:13:21;7.60;;;4.80;;
11396;SDS011;5754;43.726;7.416;2023-02-15T18:15:55;5.30;;;4.80;;
11396;SDS011;5754;43.726;7.416;2023-02-15T18:18:30;5.60;;;4.90;;
11396;SDS011;5754;43.726;7.416;2023-02-15T18:21:04;5.70;;;4.70;;